Time;durP1;ratioP1;P1;durP2;ratioP2;P2;SDS_P1;SDS_P2;PMS_P1;PMS_P2;Temp;Humidity;BMP_temperature;BMP_pressure;BME280_temperature;BME280_humidity;BME280_pressure;Samples;Min_cycle;Max_cycle;Signal;HPM_P1;HPM_P2
2023/10/17 00:01:47;;;;;;;1.10;1.10;;;19.80;74.10;;;;;;5103614;27;43736;-69
2023/10/17 00:04:27;;;;;;;0.80;0.80;;;19.70;74.30;;;;;;5119298;27;43767;-69
2023/10/17 00:06:58;;;;;;;1.00;1.00;;;19.70;74.10;;;;;;5119340;27;43458;-69
2023/10/17 00:09:26;;;;;;;1.00;1.00;;;19.70;74.20;;;;;;5113271;27;43431;-69
2023/10/17 00:12:03;;;;;;;1.00;1.00;;;19.70;74.30;;;;;;5109158;27;43407;-69
2023/10/17 00:14:35;;;;;;;1.00;1.00;;;19.70;74.40;;;;;;5088831;27;45665;-71
2023/10/17 00:17:05;;;;;;;0.90;0.90;;;19.70;74.70;;;;;;5086299;27;44730;-70
2023/10/17 00:19:33;;;;;;;0.97;0.97;;;19.70;74.30;;;;;;5109778;27;43465;-71
2023/10/17 00:22:03;;;;;;;1.10;1.10;;;19.80;74.60;;;;;;5110170;27;43608;-71
2023/10/17 00:24:31;;;;;;;1.00;1.00;;;19.90;73.80;;;;;;5095343;27;43608;-71
2023/10/17 00:26:58;;;;;;;0.90;0.90;;;19.90;73.70;;;;;;5104527;27;43413;-71
2023/10/17 00:29:26;;;;;;;1.00;1.00;;;19.80;73.90;;;;;;5086541;27;43326;-69
2023/10/17 00:31:55;;;;;;;1.13;1.13;;;19.80;73.80;;;;;;5073302;28;43443;-72
2023/10/17 00:34:25;;;;;;;1.10;1.10;;;19.80;73.70;;;;;;5083167;27;45474;-72
2023/10/17 00:37:06;;;;;;;0.93;0.93;;;19.80;73.90;;;;;;5077748;27;44973;-72
2023/10/17 00:39:36;;;;;;;0.97;0.97;;;19.70;74.00;;;;;;5083771;27;44066;-73
2023/10/17 00:42:27;;;;;;;0.90;0.90;;;19.70;74.40;;;;;;5098316;27;43401;-72
2023/10/17 00:44:55;;;;;;;0.87;0.87;;;19.70;74.30;;;;;;5081092;27;46016;-72
2023/10/17 00:47:25;;;;;;;1.00;1.00;;;19.70;74.30;;;;;;5077639;28;44854;-71
2023/10/17 00:49:54;;;;;;;1.03;1.03;;;19.70;74.30;;;;;;5074119;28;44017;-72
2023/10/17 00:52:25;;;;;;;1.00;1.00;;;19.60;74.20;;;;;;5082487;27;43562;-73
2023/10/17 00:54:55;;;;;;;1.10;1.10;;;19.60;74.60;;;;;;5081186;28;45389;-72
2023/10/17 00:57:26;;;;;;;1.10;1.10;;;19.70;74.70;;;;;;5105268;27;43410;-72
2023/10/17 00:59:55;;;;;;;0.97;0.97;;;19.70;75.00;;;;;;5080135;28;44164;-72
2023/10/17 01:02:25;;;;;;;1.10;1.10;;;19.80;73.80;;;;;;5077389;27;43593;-72
2023/10/17 01:04:56;;;;;;;0.97;0.97;;;19.90;73.70;;;;;;5094240;27;43831;-70
2023/10/17 01:07:26;;;;;;;0.80;0.80;;;19.90;73.60;;;;;;5080229;27;44880;-70
2023/10/17 01:10:00;;;;;;;1.00;1.00;;;19.80;73.80;;;;;;5073520;27;43376;-70
2023/10/17 01:12:28;;;;;;;0.90;0.90;;;19.80;73.70;;;;;;5101966;27;43426;-70
2023/10/17 01:14:56;;;;;;;0.90;0.90;;;19.80;73.70;;;;;;5086125;27;46176;-70
2023/10/17 01:17:25;;;;;;;1.07;1.07;;;19.80;73.70;;;;;;5082390;27;44923;-70
2023/10/17 01:19:57;;;;;;;1.10;1.10;;;19.70;73.80;;;;;;5108103;27;43372;-70
2023/10/17 01:22:25;;;;;;;0.90;0.90;;;19.70;74.30;;;;;;5080249;27;43509;-70
2023/10/17 01:24:56;;;;;;;0.97;0.97;;;19.70;74.80;;;;;;5090362;27;43836;-70
2023/10/17 01:27:24;;;;;;;0.90;0.90;;;19.70;74.20;;;;;;5099769;27;44707;-70
2023/10/17 01:29:53;;;;;;;1.00;1.00;;;19.70;74.20;;;;;;5088797;27;43565;-70
2023/10/17 01:32:23;;;;;;;1.00;1.00;;;19.60;74.20;;;;;;5093664;27;43646;-70
2023/10/17 01:34:51;;;;;;;1.10;1.10;;;19.60;74.60;;;;;;5096775;27;45687;-70
2023/10/17 01:37:19;;;;;;;1.20;1.20;;;19.60;74.50;;;;;;5097491;27;44329;-70
2023/10/17 01:39:47;;;;;;;0.90;0.90;;;19.70;74.20;;;;;;5104150;27;43350;-70
2023/10/17 01:42:17;;;;;;;0.90;0.90;;;19.80;73.80;;;;;;5105798;27;43907;-69
2023/10/17 01:44:45;;;;;;;0.90;0.90;;;19.90;73.30;;;;;;5100262;27;45713;-69
2023/10/17 01:47:13;;;;;;;0.97;0.97;;;20.00;73.10;;;;;;5098880;27;44350;-70
2023/10/17 01:49:42;;;;;;;0.90;0.90;;;20.00;73.20;;;;;;5101531;27;43400;-70
2023/10/17 01:52:11;;;;;;;1.00;1.00;;;19.90;73.30;;;;;;5102900;27;43502;-69
2023/10/17 01:54:40;;;;;;;0.90;0.90;;;19.80;74.10;;;;;;5099281;27;45621;-70
2023/10/17 01:57:08;;;;;;;0.90;0.90;;;19.80;73.80;;;;;;5097801;27;44413;-70
2023/10/17 01:59:38;;;;;;;0.90;0.90;;;19.70;73.90;;;;;;5093016;27;43390;-70
2023/10/17 02:02:06;;;;;;;1.00;1.00;;;19.70;73.80;;;;;;5096920;27;43566;-69
2023/10/17 02:04:35;;;;;;;1.00;1.00;;;19.70;73.90;;;;;;5088044;28;45503;-70
2023/10/17 02:07:04;;;;;;;1.00;1.00;;;19.70;74.00;;;;;;5116673;27;43395;-70
2023/10/17 02:12:14;;;;;;;0.90;0.90;;;19.60;74.30;;;;;;5097056;27;43664;-70
2023/10/17 02:14:44;;;;;;;1.10;1.10;;;19.60;74.20;;;;;;5108778;27;43878;-71
2023/10/17 02:17:15;;;;;;;1.03;1.03;;;19.60;74.20;;;;;;5104690;27;44538;-71
2023/10/17 02:19:43;;;;;;;1.00;1.00;;;19.60;74.30;;;;;;5087040;27;43458;-72
2023/10/17 02:22:16;;;;;;;1.03;1.03;;;19.50;74.30;;;;;;5084898;27;43570;-72
2023/10/17 02:24:44;;;;;;;0.90;0.90;;;19.60;74.80;;;;;;5078325;27;45781;-71
2023/10/17 02:27:13;;;;;;;1.00;1.00;;;19.60;74.40;;;;;;5074782;27;46019;-72
2023/10/17 02:29:44;;;;;;;0.83;0.83;;;19.70;74.00;;;;;;5096785;27;43347;-72
2023/10/17 02:32:13;;;;;;;1.00;1.00;;;19.80;73.50;;;;;;5101093;27;43425;-71
2023/10/17 02:34:43;;;;;;;0.90;0.90;;;19.90;74.00;;;;;;5090843;27;44585;-70
2023/10/17 02:37:11;;;;;;;0.93;0.93;;;19.90;73.20;;;;;;5104175;27;44352;-70
2023/10/17 02:39:39;;;;;;;0.80;0.80;;;19.90;73.40;;;;;;5095869;27;43401;-70
2023/10/17 02:42:08;;;;;;;0.90;0.90;;;19.80;73.50;;;;;;5098567;27;43457;-70
2023/10/17 02:44:39;;;;;;;1.00;1.00;;;19.70;73.70;;;;;;5098065;27;46141;-69
2023/10/17 02:47:11;;;;;;;0.90;0.90;;;19.70;74.10;;;;;;5119672;27;43449;-70
2023/10/17 02:49:43;;;;;;;0.80;0.80;;;19.60;73.90;;;;;;5099689;27;43426;-70
2023/10/17 02:52:10;;;;;;;0.90;0.90;;;19.60;74.00;;;;;;5099135;27;43497;-70
2023/10/17 02:54:55;;;;;;;1.00;1.00;;;19.60;74.10;;;;;;5100856;27;45687;-69
2023/10/17 02:57:24;;;;;;;0.90;0.90;;;19.60;74.20;;;;;;5099014;27;44591;-70
2023/10/17 02:59:56;;;;;;;0.97;0.97;;;19.60;74.50;;;;;;5098784;28;43474;-70
2023/10/17 03:02:36;;;;;;;0.90;0.90;;;19.60;74.30;;;;;;5096676;27;43461;-70
2023/10/17 03:05:11;;;;;;;0.90;0.90;;;19.70;74.00;;;;;;5086740;28;45658;-70
2023/10/17 03:07:42;;;;;;;0.97;0.97;;;19.80;73.70;;;;;;5094940;27;44974;-70
2023/10/17 03:10:20;;;;;;;0.90;0.90;;;19.70;73.60;;;;;;5102621;27;43357;-69
2023/10/17 03:12:55;;;;;;;1.03;1.03;;;19.70;73.90;;;;;;5114650;27;43397;-70
2023/10/17 03:15:29;;;;;;;0.80;0.80;;;19.70;73.70;;;;;;5097002;27;45708;-70
2023/10/17 03:18:00;;;;;;;1.10;1.10;;;19.70;73.70;;;;;;5114790;27;43416;-70
2023/10/17 03:20:40;;;;;;;0.80;0.80;;;19.70;73.70;;;;;;5104670;27;43454;-70
2023/10/17 03:23:10;;;;;;;1.10;1.10;;;19.70;74.00;;;;;;5095206;27;43344;-69
2023/10/17 03:25:39;;;;;;;0.90;0.90;;;19.60;74.30;;;;;;5090310;27;45688;-66
2023/10/17 03:28:08;;;;;;;0.90;0.90;;;19.60;74.20;;;;;;5073822;27;44749;-66
2023/10/17 03:30:36;;;;;;;0.77;0.77;;;19.60;74.10;;;;;;5083299;27;43502;-67
2023/10/17 03:33:08;;;;;;;0.90;0.90;;;19.60;74.10;;;;;;5079613;27;43437;-66
2023/10/17 03:35:45;;;;;;;0.97;0.97;;;19.50;74.10;;;;;;5081564;27;45989;-66
2023/10/17 03:38:15;;;;;;;1.00;1.00;;;19.50;74.40;;;;;;5084694;27;45175;-66
2023/10/17 03:40:53;;;;;;;1.10;1.10;;;19.50;74.50;;;;;;5087318;27;43401;-66
2023/10/17 03:43:22;;;;;;;0.90;0.90;;;19.60;74.20;;;;;;5101731;27;43451;-66
2023/10/17 03:45:56;;;;;;;0.90;0.90;;;19.70;73.80;;;;;;5101755;27;43829;-66
2023/10/17 03:48:28;;;;;;;0.97;0.97;;;19.80;73.40;;;;;;5086069;27;44992;-66
2023/10/17 03:51:08;;;;;;;1.10;1.10;;;19.80;73.00;;;;;;5100145;27;43372;-66
2023/10/17 03:53:42;;;;;;;0.87;0.87;;;19.80;73.10;;;;;;5098125;27;43511;-67
2023/10/17 03:56:18;;;;;;;0.90;0.90;;;19.80;73.30;;;;;;5077118;27;45605;-66
2023/10/17 03:58:53;;;;;;;0.97;0.97;;;19.70;73.50;;;;;;5102267;27;43395;-66
2023/10/17 04:01:23;;;;;;;0.90;0.90;;;19.70;74.00;;;;;;5096669;27;43451;-66
2023/10/17 04:03:54;;;;;;;0.93;0.93;;;19.60;73.80;;;;;;5082032;28;43423;-66
2023/10/17 04:06:33;;;;;;;1.00;1.00;;;19.60;73.80;;;;;;5104840;27;43868;-66
2023/10/17 04:11:58;;;;;;;1.10;1.10;;;19.60;73.90;;;;;;5148337;27;43489;-67
2023/10/17 04:14:33;;;;;;;1.00;1.00;;;19.50;74.40;;;;;;5145499;27;43661;-66
2023/10/17 04:17:05;;;;;;;0.90;0.90;;;19.60;74.30;;;;;;5148651;27;43532;-70
2023/10/17 04:19:36;;;;;;;1.10;1.10;;;19.70;74.00;;;;;;5143040;27;43394;-65
2023/10/17 04:22:08;;;;;;;0.90;0.90;;;19.70;73.60;;;;;;5147347;27;45792;-66
2023/10/17 04:24:49;;;;;;;1.10;1.10;;;19.70;73.40;;;;;;5142942;27;43962;-67
2023/10/17 04:27:22;;;;;;;0.90;0.90;;;19.70;73.90;;;;;;5146913;27;43493;-66
2023/10/17 04:29:56;;;;;;;1.10;1.10;;;19.70;73.70;;;;;;5148963;27;43401;-66
2023/10/17 04:32:28;;;;;;;0.97;0.97;;;19.70;73.70;;;;;;5148452;27;43602;-67
2023/10/17 04:34:56;;;;;;;0.90;0.90;;;19.60;73.70;;;;;;5148105;27;43396;-70
2023/10/17 04:37:32;;;;;;;1.00;1.00;;;19.60;73.80;;;;;;5143840;27;43466;-70
2023/10/17 04:43:31;;;;;;;0.87;0.87;;;19.50;74.00;;;;;;5143864;27;47067;-70
2023/10/17 04:45:45;;;;;;;0.90;0.90;;;19.50;74.00;;;;;;5143293;27;43412;-74
2023/10/17 04:48:16;;;;;;;0.90;0.90;;;19.50;74.10;;;;;;5144119;27;43436;-70
2023/10/17 04:50:55;;;;;;;0.90;0.90;;;19.50;74.20;;;;;;5146868;27;43363;-70
2023/10/17 04:53:28;;;;;;;1.03;1.03;;;19.50;74.60;;;;;;5145885;27;44519;-70
2023/10/17 04:56:11;;;;;;;1.10;1.10;;;19.50;74.30;;;;;;5140648;27;43417;-70
2023/10/17 04:58:48;;;;;;;1.00;1.00;;;19.60;73.90;;;;;;5140881;27;43433;-74
2023/10/17 05:01:35;;;;;;;1.00;1.00;;;19.70;73.50;;;;;;5142778;27;43326;-72
2023/10/17 05:04:13;;;;;;;1.00;1.00;;;19.70;73.40;;;;;;5128055;27;43812;-70
2023/10/17 06:16:52;;;;;;;0.97;0.97;;;19.40;74.00;;;;;;5122046;27;43378;-69
2023/10/17 06:19:24;;;;;;;1.00;1.00;;;19.40;74.20;;;;;;5123879;27;43497;-69
2023/10/17 06:24:46;;;;;;;0.90;0.90;;;19.50;74.20;;;;;;5126367;27;44767;-68
2023/10/17 06:30:27;;;;;;;0.90;0.90;;;19.80;73.40;;;;;;5123843;27;43411;-68
2023/10/17 06:35:46;;;;;;;1.00;1.00;;;19.80;72.70;;;;;;5116368;27;43531;-69
2023/10/17 06:38:16;;;;;;;0.80;0.80;;;19.80;72.90;;;;;;5127172;27;43505;-70
2023/10/17 06:40:51;;;;;;;0.90;0.90;;;19.70;73.10;;;;;;5127544;27;43407;-70
2023/10/17 06:43:28;;;;;;;0.63;0.63;;;19.70;73.40;;;;;;5127184;27;43850;-70
2023/10/17 06:45:57;;;;;;;0.80;0.80;;;19.60;73.80;;;;;;5126851;27;43381;-69
2023/10/17 06:48:36;;;;;;;1.00;1.00;;;19.60;73.60;;;;;;5126240;27;43563;-70
2023/10/17 06:53:55;;;;;;;0.87;0.87;;;19.50;73.80;;;;;;5127435;27;43620;-69
2023/10/17 06:56:25;;;;;;;1.00;1.00;;;19.50;74.00;;;;;;5110123;27;45004;-65
2023/10/17 06:59:03;;;;;;;1.10;1.10;;;19.50;75.00;;;;;;5112185;27;43327;-66
2023/10/17 07:01:34;;;;;;;0.83;0.83;;;19.40;74.00;;;;;;5110678;27;43517;-66
2023/10/17 07:04:03;;;;;;;0.90;0.90;;;19.40;74.10;;;;;;5111003;27;43839;-66
2023/10/17 07:06:36;;;;;;;0.93;0.93;;;19.40;74.10;;;;;;5110813;27;43424;-66
2023/10/17 07:09:06;;;;;;;0.90;0.90;;;19.40;74.30;;;;;;5104871;27;43448;-65
2023/10/17 07:11:36;;;;;;;0.90;0.90;;;19.40;74.60;;;;;;5106119;27;43381;-67
2023/10/17 07:16:57;;;;;;;1.00;1.00;;;19.60;73.90;;;;;;5111449;27;43516;-66
2023/10/17 07:22:14;;;;;;;0.90;0.90;;;19.70;73.70;;;;;;5112146;27;43405;-66
2023/10/17 07:24:48;;;;;;;1.00;1.00;;;19.70;73.10;;;;;;5108788;27;45385;-65
2023/10/17 07:27:33;;;;;;;0.90;0.90;;;19.70;73.30;;;;;;5111166;27;43489;-67
2023/10/17 07:30:10;;;;;;;0.97;0.97;;;19.60;73.50;;;;;;5111442;27;43428;-66
2023/10/17 07:32:49;;;;;;;0.90;0.90;;;19.50;73.70;;;;;;5112125;27;43451;-66
2023/10/17 07:35:23;;;;;;;1.00;1.00;;;19.50;73.70;;;;;;5111820;27;43882;-65
2023/10/17 07:37:59;;;;;;;0.80;0.80;;;19.50;73.80;;;;;;5103457;27;44700;-66
2023/10/17 07:40:42;;;;;;;1.00;1.00;;;19.50;74.00;;;;;;5110968;27;43371;-66
2023/10/17 07:43:10;;;;;;;0.93;0.93;;;19.40;73.90;;;;;;5112012;27;43452;-67
2023/10/17 07:45:39;;;;;;;0.80;0.80;;;19.40;74.30;;;;;;5111293;27;43769;-66
2023/10/17 07:50:59;;;;;;;0.90;0.90;;;19.50;74.00;;;;;;5104337;27;43466;-66
2023/10/17 07:53:32;;;;;;;0.97;0.80;;;19.70;73.70;;;;;;5111481;27;43330;-66
2023/10/17 07:56:06;;;;;;;0.97;0.97;;;19.70;73.20;;;;;;5110922;27;43856;-66
2023/10/17 07:58:41;;;;;;;0.87;0.87;;;19.70;72.90;;;;;;5111150;27;43554;-67
2023/10/17 08:01:14;;;;;;;0.90;0.90;;;19.70;73.10;;;;;;5110495;27;43339;-67
2023/10/17 08:03:51;;;;;;;1.00;1.00;;;19.60;73.20;;;;;;5105933;27;43465;-66
2023/10/17 08:06:22;;;;;;;1.00;1.00;;;19.60;73.50;;;;;;5108758;27;44857;-67
2023/10/17 08:08:52;;;;;;;1.00;1.00;;;19.50;74.00;;;;;;5110831;27;43403;-66
2023/10/17 08:11:27;;;;;;;1.00;1.00;;;19.50;73.80;;;;;;5108729;27;43459;-66
2023/10/17 08:13:56;;;;;;;0.90;0.90;;;19.40;73.80;;;;;;5111039;27;43412;-67
2023/10/17 08:16:26;;;;;;;1.20;1.20;;;19.40;73.90;;;;;;5110705;27;43899;-66
2023/10/17 08:18:58;;;;;;;1.00;1.00;;;19.40;74.00;;;;;;5111003;27;43473;-67
2023/10/17 08:21:48;;;;;;;1.00;1.00;;;19.40;74.20;;;;;;5105467;27;43857;-67
2023/10/17 08:24:23;;;;;;;1.00;1.00;;;19.40;74.20;;;;;;5109193;27;43369;-66
2023/10/17 08:27:13;;;;;;;0.97;0.97;;;19.40;74.20;;;;;;5110584;27;43863;-66
2023/10/17 08:29:45;;;;;;;1.10;1.10;;;19.40;74.20;;;;;;5104780;27;43823;-67
2023/10/17 08:32:38;;;;;;;0.90;0.90;;;19.40;74.30;;;;;;5110641;27;43984;-66
2023/10/17 08:35:17;;;;;;;1.00;1.00;;;19.30;74.30;;;;;;5111173;27;43408;-67
2023/10/17 08:37:44;;;;;;;0.80;0.80;;;19.40;74.60;;;;;;5110164;27;43618;-66
2023/10/17 08:42:56;;;;;;;1.00;1.00;;;19.60;73.70;;;;;;5103896;27;43438;-66
2023/10/17 08:45:26;;;;;;;1.10;1.10;;;19.70;73.20;;;;;;5111359;27;43477;-66
2023/10/17 08:47:59;;;;;;;1.00;1.00;;;19.70;72.90;;;;;;5110298;27;43601;-65
2023/10/17 08:50:28;;;;;;;1.07;1.00;;;19.70;73.70;;;;;;5109872;27;43515;-66
2023/10/17 08:52:56;;;;;;;0.93;0.93;;;19.60;73.10;;;;;;5110543;27;43399;-66
2023/10/17 08:55:24;;;;;;;1.00;1.00;;;19.60;73.40;;;;;;5110381;27;43423;-66
2023/10/17 08:57:52;;;;;;;0.90;0.90;;;19.50;73.60;;;;;;5112620;27;43601;-66
2023/10/17 09:00:44;;;;;;;1.00;1.00;;;19.50;73.90;;;;;;5112321;27;43815;-66
2023/10/17 09:03:20;;;;;;;0.80;0.80;;;19.50;73.80;;;;;;5114086;27;43414;-67
2023/10/17 09:05:58;;;;;;;0.90;0.90;;;19.40;73.80;;;;;;5109159;27;43390;-66
2023/10/17 09:08:44;;;;;;;1.60;1.50;;;19.40;74.00;;;;;;5114063;27;43903;-66
2023/10/17 09:11:15;;;;;;;2.20;2.00;;;19.40;74.10;;;;;;5112958;27;44080;-66
2023/10/17 09:16:41;;;;;;;7.30;3.07;;;19.40;74.10;;;;;;5114060;27;43433;-66
2023/10/17 09:19:10;;;;;;;9.67;4.00;;;19.50;73.60;;;;;;5113318;27;43702;-66
2023/10/17 09:21:42;;;;;;;9.80;3.60;;;19.60;73.30;;;;;;5112755;27;43402;-66
2023/10/17 09:24:32;;;;;;;11.20;4.73;;;19.60;73.40;;;;;;5113503;27;43416;-68
2023/10/17 09:27:00;;;;;;;12.70;4.73;;;19.50;73.70;;;;;;5128541;27;43403;-69
2023/10/17 09:29:28;;;;;;;9.77;5.07;;;19.50;73.50;;;;;;5123971;27;43969;-70
2023/10/17 09:32:00;;;;;;;12.20;5.13;;;19.50;73.50;;;;;;5128668;27;43425;-70
2023/10/17 09:34:29;;;;;;;10.33;4.90;;;19.50;73.60;;;;;;5122294;27;43452;-70
2023/10/17 09:37:04;;;;;;;12.40;5.30;;;19.40;73.70;;;;;;5111417;27;43711;-70
2023/10/17 09:39:39;;;;;;;17.83;7.60;;;19.40;73.80;;;;;;5107565;27;43586;-70
2023/10/17 09:42:07;;;;;;;18.07;6.80;;;19.40;74.20;;;;;;5126383;27;43500;-70
2023/10/17 09:44:35;;;;;;;19.47;7.80;;;19.40;73.90;;;;;;5111736;27;43796;-70
2023/10/17 09:47:06;;;;;;;19.03;6.60;;;19.40;74.00;;;;;;5111100;27;43509;-70
2023/10/17 09:49:36;;;;;;;18.63;7.00;;;19.40;74.00;;;;;;5110616;27;43907;-70
2023/10/17 09:52:09;;;;;;;17.63;7.43;;;19.30;74.10;;;;;;5110360;27;43407;-69
2023/10/17 09:54:40;;;;;;;15.60;7.67;;;19.30;74.30;;;;;;5108221;27;43457;-67
2023/10/17 09:57:12;;;;;;;18.17;7.60;;;19.30;74.00;;;;;;5106568;27;43347;-66
2023/10/17 09:59:44;;;;;;;19.07;7.37;;;19.30;74.10;;;;;;5112689;27;43535;-67
2023/10/17 10:02:17;;;;;;;18.23;7.93;;;19.30;74.20;;;;;;5112268;27;43464;-66
2023/10/17 10:04:45;;;;;;;19.43;7.70;;;19.30;74.30;;;;;;5113910;27;43409;-66
2023/10/17 10:07:20;;;;;;;21.27;8.63;;;19.30;74.70;;;;;;5112082;27;43408;-66
2023/10/17 10:09:48;;;;;;;19.97;7.83;;;19.30;74.60;;;;;;5112567;27;43962;-66
2023/10/17 10:12:17;;;;;;;21.63;8.43;;;19.40;74.20;;;;;;5113388;27;43431;-66
2023/10/17 10:14:49;;;;;;;23.53;9.07;;;19.50;73.70;;;;;;5112924;27;43496;-66
2023/10/17 10:17:19;;;;;;;21.10;8.57;;;19.70;73.30;;;;;;5109244;27;43339;-67
2023/10/17 10:20:04;;;;;;;22.73;8.87;;;19.70;72.90;;;;;;5112923;27;43590;-66
2023/10/17 10:22:52;;;;;;;17.90;7.60;;;19.70;72.70;;;;;;5112575;27;43374;-66
2023/10/17 10:25:22;;;;;;;19.20;9.03;;;19.60;73.00;;;;;;5112734;27;43931;-66
2023/10/17 10:28:09;;;;;;;21.70;7.87;;;19.50;73.20;;;;;;5112911;27;43368;-66
2023/10/17 10:30:43;;;;;;;17.83;8.07;;;19.50;73.60;;;;;;5110640;27;43704;-66
2023/10/17 10:33:13;;;;;;;15.07;7.83;;;19.50;73.50;;;;;;5112700;27;43885;-66
2023/10/17 10:35:43;;;;;;;14.03;7.20;;;19.40;73.60;;;;;;5112672;27;43998;-66
2023/10/17 10:38:11;;;;;;;17.43;7.37;;;19.40;73.70;;;;;;5112838;27;43389;-67
2023/10/17 10:40:40;;;;;;;15.37;7.53;;;19.40;73.90;;;;;;5112127;27;43992;-67
2023/10/17 10:43:11;;;;;;;14.90;6.97;;;19.40;74.30;;;;;;5112050;27;43425;-66
2023/10/17 10:45:47;;;;;;;16.63;7.87;;;19.40;74.00;;;;;;5111027;27;43452;-70
2023/10/17 10:48:18;;;;;;;17.73;8.10;;;19.40;73.80;;;;;;5109632;27;43477;-70
2023/10/17 10:50:48;;;;;;;20.53;7.87;;;19.30;73.80;;;;;;5109783;27;43618;-70
2023/10/17 10:53:24;;;;;;;23.87;8.30;;;19.30;73.40;;;;;;5107423;27;43384;-70
2023/10/17 10:55:59;;;;;;;19.80;7.93;;;19.30;73.20;;;;;;5108380;27;43505;-70
2023/10/17 10:58:28;;;;;;;24.00;9.03;;;19.30;72.90;;;;;;5110080;27;43427;-70
2023/10/17 11:00:59;;;;;;;26.13;9.53;;;19.40;72.50;;;;;;5109241;27;43610;-70
2023/10/17 11:03:28;;;;;;;18.60;7.80;;;19.50;72.00;;;;;;5109144;27;43469;-70
2023/10/17 11:05:58;;;;;;;18.67;7.57;;;19.60;71.50;;;;;;5111737;27;43398;-67
2023/10/17 11:08:33;;;;;;;22.20;8.27;;;19.70;71.30;;;;;;5110830;27;45290;-66
2023/10/17 11:11:03;;;;;;;16.00;7.80;;;19.70;71.40;;;;;;5111375;27;43924;-65
2023/10/17 11:13:33;;;;;;;15.60;7.40;;;19.60;71.60;;;;;;5110687;27;43444;-67
2023/10/17 11:16:01;;;;;;;16.77;7.63;;;19.50;71.70;;;;;;5112103;27;43428;-67
2023/10/17 11:18:30;;;;;;;17.67;8.07;;;19.50;71.80;;;;;;5111976;27;43398;-66
2023/10/17 11:20:58;;;;;;;15.00;7.07;;;19.40;72.60;;;;;;5110028;27;45239;-66
2023/10/17 11:23:27;;;;;;;16.47;7.20;;;19.40;71.90;;;;;;5111486;27;43381;-66
2023/10/17 11:25:55;;;;;;;12.53;7.03;;;19.40;72.00;;;;;;5111324;27;43335;-67
2023/10/17 11:28:23;;;;;;;14.63;6.90;;;19.40;72.00;;;;;;5108704;27;43419;-67
2023/10/17 11:30:51;;;;;;;16.00;7.30;;;19.40;72.10;;;;;;5109202;27;46123;-66
2023/10/17 11:33:28;;;;;;;15.17;7.43;;;19.30;72.10;;;;;;5110871;27;43445;-66
2023/10/17 11:36:03;;;;;;;15.13;6.97;;;19.30;72.00;;;;;;5111078;27;43379;-67
2023/10/17 11:38:37;;;;;;;14.70;7.10;;;19.30;72.00;;;;;;5111322;27;43342;-66
2023/10/17 11:41:15;;;;;;;12.60;6.63;;;19.30;72.00;;;;;;5105239;27;43857;-66
2023/10/17 11:43:51;;;;;;;13.10;6.70;;;19.30;72.10;;;;;;5110836;27;44359;-66
2023/10/17 11:46:28;;;;;;;13.67;6.70;;;19.30;72.20;;;;;;5110936;27;43945;-66
2023/10/17 11:49:14;;;;;;;14.87;7.20;;;19.30;72.20;;;;;;5102474;27;43378;-66
2023/10/17 11:51:43;;;;;;;12.90;6.97;;;19.30;71.80;;;;;;5110886;27;43980;-66
2023/10/17 11:54:12;;;;;;;15.07;6.77;;;19.40;71.50;;;;;;5108029;27;45051;-66
2023/10/17 11:57:11;;;;;;;11.47;6.23;;;19.50;71.10;;;;;;5107368;27;43467;-66
2023/10/17 11:59:39;;;;;;;12.43;6.53;;;19.60;70.90;;;;;;5107864;27;43517;-67
2023/10/17 12:02:11;;;;;;;11.97;6.40;;;19.60;71.00;;;;;;5104954;27;43611;-67
2023/10/17 12:04:39;;;;;;;9.83;6.00;;;19.50;71.10;;;;;;5107496;27;44959;-66
2023/10/17 12:07:09;;;;;;;9.13;6.10;;;19.50;71.40;;;;;;5105680;27;43372;-66
2023/10/17 12:09:37;;;;;;;11.10;5.80;;;19.40;71.60;;;;;;5110686;27;43458;-66
2023/10/17 12:12:06;;;;;;;11.17;6.07;;;19.40;71.70;;;;;;5107295;27;43854;-67
2023/10/17 12:14:35;;;;;;;9.70;6.20;;;19.40;71.80;;;;;;5109106;27;43424;-70
2023/10/17 12:17:08;;;;;;;8.57;5.60;;;19.30;71.80;;;;;;5121180;27;43923;-69
2023/10/17 12:19:36;;;;;;;11.33;5.97;;;19.30;71.90;;;;;;5119622;27;43477;-70
2023/10/17 12:22:04;;;;;;;9.53;5.43;;;19.30;72.10;;;;;;5122983;27;43675;-70
2023/10/17 12:24:35;;;;;;;8.40;5.40;;;19.30;72.10;;;;;;5123410;27;44610;-69
2023/10/17 12:27:06;;;;;;;10.80;5.53;;;19.30;72.10;;;;;;5120051;27;43445;-69
2023/10/17 12:29:35;;;;;;;8.23;5.23;;;19.20;72.00;;;;;;5120602;27;43434;-70
2023/10/17 12:32:05;;;;;;;10.33;5.57;;;19.20;72.00;;;;;;5124305;27;43829;-69
2023/10/17 12:34:33;;;;;;;9.67;6.00;;;19.20;72.10;;;;;;5126595;27;43465;-69
2023/10/17 12:37:03;;;;;;;8.27;4.90;;;19.20;72.30;;;;;;5127826;27;43414;-69
2023/10/17 12:39:32;;;;;;;8.10;5.53;;;19.20;72.00;;;;;;5127568;27;43458;-70
2023/10/17 12:42:00;;;;;;;9.77;5.90;;;19.40;71.80;;;;;;5128273;27;43809;-70
2023/10/17 12:44:31;;;;;;;7.13;5.23;;;19.50;71.40;;;;;;5125387;27;43391;-70
2023/10/17 12:46:59;;;;;;;7.07;5.30;;;19.50;71.00;;;;;;5126819;27;43526;-70
2023/10/17 12:49:27;;;;;;;6.33;5.23;;;19.50;71.10;;;;;;5128539;27;43535;-70
2023/10/17 12:51:56;;;;;;;7.87;5.57;;;19.50;71.20;;;;;;5128306;27;43618;-70
2023/10/17 12:54:26;;;;;;;6.70;5.33;;;19.50;71.30;;;;;;5127879;27;45159;-70
2023/10/17 12:56:56;;;;;;;8.37;5.17;;;19.40;71.30;;;;;;5128336;27;43327;-70
2023/10/17 12:59:24;;;;;;;6.17;4.67;;;19.40;71.70;;;;;;5128532;27;43372;-70
2023/10/17 13:01:52;;;;;;;8.87;5.30;;;19.40;71.90;;;;;;5126442;27;43922;-70
2023/10/17 13:04:20;;;;;;;6.37;4.70;;;19.30;71.80;;;;;;5127084;27;43521;-70
2023/10/17 13:06:53;;;;;;;6.73;5.17;;;19.30;71.80;;;;;;5129082;27;43390;-69
2023/10/17 13:09:22;;;;;;;6.40;5.27;;;19.30;71.90;;;;;;5128804;27;43433;-70
2023/10/17 13:11:50;;;;;;;8.50;4.77;;;19.30;72.00;;;;;;5126626;27;45525;-69
2023/10/17 13:14:20;;;;;;;6.07;5.20;;;19.30;72.10;;;;;;5127624;27;43389;-69
2023/10/17 13:16:48;;;;;;;6.27;5.10;;;19.30;71.90;;;;;;5127532;27;43417;-69
2023/10/17 13:19:18;;;;;;;7.10;4.80;;;19.40;71.70;;;;;;5128814;27;43561;-70
2023/10/17 13:21:46;;;;;;;5.40;4.10;;;19.40;72.00;;;;;;5128664;27;43594;-70
2023/10/17 13:24:15;;;;;;;6.07;4.80;;;19.40;72.00;;;;;;5123891;27;45035;-69
2023/10/17 13:26:45;;;;;;;5.33;4.40;;;19.40;72.10;;;;;;5110902;27;43536;-69
2023/10/17 13:29:13;;;;;;;5.27;4.20;;;19.40;72.00;;;;;;5111423;27;43925;-70
2023/10/17 13:31:43;;;;;;;6.33;4.80;;;19.40;72.30;;;;;;5110761;27;43913;-70
2023/10/17 13:34:11;;;;;;;7.10;4.60;;;19.40;72.40;;;;;;5110807;27;43452;-70
2023/10/17 13:36:39;;;;;;;6.00;4.80;;;19.40;72.40;;;;;;5110593;27;43813;-70
2023/10/17 13:39:07;;;;;;;4.90;4.50;;;19.30;72.40;;;;;;5111201;27;43413;-70
2023/10/17 13:41:36;;;;;;;5.20;4.60;;;19.30;72.20;;;;;;5105879;27;43606;-70
2023/10/17 13:44:04;;;;;;;5.50;4.37;;;19.30;72.30;;;;;;5108263;27;43369;-70
2023/10/17 13:46:34;;;;;;;5.27;4.40;;;19.30;72.20;;;;;;5109180;27;43461;-70
2023/10/17 13:49:05;;;;;;;4.70;4.13;;;19.30;72.00;;;;;;5110901;27;43460;-70
2023/10/17 13:51:35;;;;;;;5.73;4.10;;;19.30;71.90;;;;;;5110923;27;44089;-70
2023/10/17 13:54:05;;;;;;;7.30;4.47;;;19.30;72.20;;;;;;5110172;27;43991;-70
2023/10/17 13:56:34;;;;;;;4.83;3.90;;;19.30;72.20;;;;;;5110378;27;43503;-69
2023/10/17 13:59:03;;;;;;;5.63;4.40;;;19.30;72.00;;;;;;5110781;27;43468;-70
2023/10/17 14:01:41;;;;;;;4.13;3.73;;;19.30;72.00;;;;;;5110447;27;43868;-70
2023/10/17 14:04:11;;;;;;;4.27;3.87;;;19.30;72.20;;;;;;5104294;27;43996;-69
2023/10/17 14:06:39;;;;;;;5.30;4.37;;;19.20;72.10;;;;;;5110540;27;43529;-70
2023/10/17 14:09:14;;;;;;;5.23;4.13;;;19.20;72.20;;;;;;5110867;27;43437;-69
2023/10/17 14:11:46;;;;;;;4.77;3.97;;;19.30;72.10;;;;;;5104321;27;43928;-70
2023/10/17 14:14:15;;;;;;;4.80;4.23;;;19.40;71.80;;;;;;5107407;27;43335;-71
2023/10/17 14:16:43;;;;;;;4.27;3.87;;;19.50;71.40;;;;;;5110419;27;43420;-72
2023/10/17 14:19:18;;;;;;;4.97;3.90;;;19.60;71.00;;;;;;5106514;27;43407;-70
2023/10/17 14:22:01;;;;;;;4.27;3.87;;;19.60;70.90;;;;;;5108794;27;45507;-71
2023/10/17 14:24:38;;;;;;;4.63;3.87;;;19.60;71.00;;;;;;5110424;27;43390;-72
2023/10/17 14:27:11;;;;;;;4.20;3.80;;;19.50;71.10;;;;;;5110450;27;43411;-71
2023/10/17 14:29:42;;;;;;;4.30;3.90;;;19.40;71.20;;;;;;5108935;27;43453;-72
2023/10/17 14:32:10;;;;;;;3.63;3.43;;;19.40;71.60;;;;;;5109792;27;43694;-72
2023/10/17 14:34:39;;;;;;;4.27;3.90;;;19.40;71.60;;;;;;5114397;27;43425;-70
2023/10/17 14:37:07;;;;;;;3.90;3.60;;;19.40;71.70;;;;;;5122293;27;43348;-70
2023/10/17 14:39:36;;;;;;;4.07;3.77;;;19.30;71.70;;;;;;5125878;27;43491;-70
2023/10/17 14:42:05;;;;;;;4.07;3.70;;;19.30;71.80;;;;;;5125463;27;43854;-70
2023/10/17 14:44:33;;;;;;;3.60;3.40;;;19.30;71.90;;;;;;5126246;27;43351;-70
2023/10/17 14:47:01;;;;;;;3.63;3.33;;;19.30;71.90;;;;;;5126344;27;43401;-70
2023/10/17 14:49:29;;;;;;;4.07;3.73;;;19.30;72.00;;;;;;5124585;27;43430;-70
2023/10/17 14:51:59;;;;;;;3.77;3.43;;;19.30;72.00;;;;;;5121295;27;43621;-70
2023/10/17 14:54:27;;;;;;;4.00;3.70;;;19.20;71.90;;;;;;5124585;27;43394;-70